Cape Dorset Airport
CYTE : now visible

Airfield :











YOU CAN JOIN US ON...

 
LOGIN :

Register | Disclaimer

   EN    FR    IT 

 









Legend :    VFR   Marginal VFR   IFR   Intensive IFR   Very Intensive IFR
Visi :
Ceiling :
>= 8 km
>= 3000ft
5 to 8 km
1000 to 3000 ft
1500m to 5 km
500 to 1000 ft
800 to 1500m
200 to 500 ft
< 800m
< 200 ft
Symbols :   Thunderstorms  Fog  Heavy snow  Heavy precipitations  Wind > 20 kt







- Airport Elevation : 164 ft
- IATA code : YTE


CYTE - Cape Dorset

CURRENT METAR :
  • 210800Z AUTO 06004KT 9SM OVC008 M02/M03 A3014 RMK SLP214

EXPIRED METARs :
  • 210707Z AUTO 06002KT 9SM BKN008 OVC036 M02/M03 A3014 RMK SLP214
  • 210636Z AUTO 04003KT 9SM SCT008 SCT016 OVC034 M02/M03 A3014 RMK SLP214
  • 210632Z AUTO VRB02KT 9SM SCT008 BKN016 OVC034 M02/M03 A3014 RMK SLP214
  • 210610Z AUTO 06002KT 9SM BKN008 BKN016 OVC036 M02/M03 A3014 RMK SLP214
  • 210600Z AUTO VRB02KT 9SM FEW008 BKN016 OVC036 M01/M02 A3014 RMK SLP214
  • 210530Z AUTO 00000KT 9SM SCT008 BKN018 OVC036 M02/M03 A3014 RMK SLP214
  • 210521Z AUTO 00000KT 9SM SCT008 OVC036 M02/M03 A3014 RMK SLP214

TAF AMD TAF CYTE
Valid from the 21 at 07:00 until the 21 at 19:00 UTC


210708Z 2107/2119 VRB03KT P6SM SCT008 OVC030
TEMPO 2107/2113 21/2SM -SN BR BKN008 OVC015
PROB30 2107/2113 1SM -SN BR OVC004
FM211300 08010KT P6SM OVC030
TEMPO 2113/2119 3SM -SN OVC015 RMK FCST BASED ON AUTO OBS. NXT FCST BY 211300Z
CZEG FIR / North America



MET'MAP, your aeronautical weather chart ! - Copyright ORBIFLY December 2007 - Disclaimer

ORBIFLY MET'MAP TEAM :

Programming & Development : Alexandra Zaïnal
Concept & Development : Baudouin d'Aumeries
Co-Development & Prog : Marc-Olivier Méhu
Technical & hardware support : Manuel Goepfert

Contact : metmap@orbifly.com




SOURCES & CREDITS :

   NOAA       Earth
Advisory